Time;durP1;ratioP1;P1;durP2;ratioP2;P2;SDS_P1;SDS_P2;PMS_P1;PMS_P2;Temp;Humidity;BMP_temperature;BMP_pressure;BME280_temperature;BME280_humidity;BME280_pressure;Samples;Min_cycle;Max_cycle;Signal;HPM_P1;HPM_P2
2023/12/20 06:00:55;;;;;;;1.13;0.90;;;;;;;;;;5703253;23;20585;-74
2023/12/20 06:03:21;;;;;;;1.50;1.00;;;;;;;;;;4975270;28;20452;-74
2023/12/20 06:05:47;;;;;;;2.23;1.23;;;;;;;;;;4975272;28;20459;-74
2023/12/20 06:08:13;;;;;;;1.63;1.17;;;;;;;;;;4976314;28;20404;-73
2023/12/20 06:10:40;;;;;;;0.80;0.70;;;;;;;;;;4974919;28;20424;-73
2023/12/20 06:13:06;;;;;;;4.70;2.10;;;;;;;;;;4975336;28;20825;-73
2023/12/20 06:15:32;;;;;;;1.00;0.90;;;;;;;;;;5016325;23;21004;-79
2023/12/20 06:17:58;;;;;;;2.20;1.33;;;;;;;;;;4981702;28;20404;-79
2023/12/20 06:20:24;;;;;;;1.60;1.50;;;;;;;;;;4984705;28;20416;-79
2023/12/20 06:22:50;;;;;;;1.33;1.27;;;;;;;;;;4981321;28;20463;-79
2023/12/20 06:25:17;;;;;;;0.93;0.90;;;;;;;;;;4980749;28;20875;-79
2023/12/20 06:27:43;;;;;;;1.40;1.30;;;;;;;;;;4982065;28;20412;-80
2023/12/20 06:30:09;;;;;;;1.33;1.23;;;;;;;;;;4976969;28;20822;-79
2023/12/20 06:32:35;;;;;;;1.30;1.20;;;;;;;;;;4976286;28;20416;-79
2023/12/20 06:35:01;;;;;;;1.57;1.50;;;;;;;;;;4975113;28;20432;-79
2023/12/20 06:37:27;;;;;;;2.03;1.30;;;;;;;;;;4990574;28;20511;-79
2023/12/20 06:39:53;;;;;;;2.50;1.80;;;;;;;;;;4976714;28;20989;-79
2023/12/20 06:42:19;;;;;;;1.40;1.30;;;;;;;;;;4977138;28;20543;-80
2023/12/20 06:44:45;;;;;;;4.00;1.67;;;;;;;;;;4981055;28;20442;-79
2023/12/20 06:47:11;;;;;;;1.33;1.23;;;;;;;;;;4994147;28;20789;-78
2023/12/20 06:49:37;;;;;;;1.77;1.40;;;;;;;;;;4975755;28;20775;-78
2023/12/20 06:52:03;;;;;;;1.43;1.30;;;;;;;;;;4990334;28;20502;-80
2023/12/20 06:54:29;;;;;;;2.47;1.80;;;;;;;;;;4974111;28;20436;-79
2023/12/20 06:56:55;;;;;;;2.47;1.50;;;;;;;;;;4977985;28;20515;-80
2023/12/20 06:59:21;;;;;;;2.73;1.93;;;;;;;;;;4981719;28;20408;-79
2023/12/20 07:01:50;;;;;;;2.90;2.10;;;;;;;;;;4979763;28;20538;-79
2023/12/20 07:04:20;;;;;;;5.07;2.03;;;;;;;;;;4995047;28;20439;-79
2023/12/20 07:06:46;;;;;;;5.30;3.00;;;;;;;;;;4994390;28;20428;-80
2023/12/20 07:09:13;;;;;;;4.40;2.10;;;;;;;;;;4979573;28;20463;-80
2023/12/20 07:11:39;;;;;;;2.77;1.67;;;;;;;;;;4976285;28;20422;-80
2023/12/20 07:14:05;;;;;;;1.63;1.53;;;;;;;;;;4976244;28;20542;-79
2023/12/20 07:16:31;;;;;;;18.77;9.30;;;;;;;;;;4975527;28;20412;-80
2023/12/20 07:18:57;;;;;;;1.73;1.57;;;;;;;;;;4975150;28;20934;-80
2023/12/20 07:21:23;;;;;;;7.50;1.80;;;;;;;;;;4974296;28;20495;-79
2023/12/20 07:23:49;;;;;;;2.40;1.40;;;;;;;;;;4991169;28;20455;-74
2023/12/20 07:26:16;;;;;;;1.60;1.40;;;;;;;;;;4973590;28;20424;-74
2023/12/20 07:28:41;;;;;;;2.87;2.57;;;;;;;;;;4973690;28;20466;-73
2023/12/20 07:31:07;;;;;;;3.97;2.87;;;;;;;;;;4973603;28;20499;-73
2023/12/20 07:33:33;;;;;;;4.77;3.50;;;;;;;;;;4973658;28;20431;-74
2023/12/20 07:36:00;;;;;;;6.53;3.60;;;;;;;;;;4988600;28;20431;-73
2023/12/20 07:38:27;;;;;;;7.33;3.93;;;;;;;;;;4973745;28;20900;-74
2023/12/20 07:40:53;;;;;;;7.43;4.30;;;;;;;;;;4973519;28;20491;-75
2023/12/20 07:43:19;;;;;;;5.80;4.37;;;;;;;;;;4973701;28;20462;-78
2023/12/20 07:45:45;;;;;;;5.57;3.53;;;;;;;;;;4973926;28;20432;-77
2023/12/20 07:48:11;;;;;;;3.80;3.30;;;;;;;;;;4989126;28;20423;-77
2023/12/20 07:50:37;;;;;;;8.60;4.37;;;;;;;;;;4973830;28;20834;-76
2023/12/20 07:53:03;;;;;;;4.53;3.80;;;;;;;;;;4988682;28;20420;-77
2023/12/20 07:55:30;;;;;;;6.70;4.70;;;;;;;;;;4988773;28;20440;-76
2023/12/20 07:57:56;;;;;;;6.33;3.93;;;;;;;;;;4988667;28;20424;-77
2023/12/20 08:00:22;;;;;;;5.07;4.70;;;;;;;;;;4973626;28;20462;-77
2023/12/20 08:02:48;;;;;;;4.57;3.77;;;;;;;;;;4973702;28;20460;-77
2023/12/20 08:05:14;;;;;;;7.43;3.20;;;;;;;;;;4973609;28;20431;-74
2023/12/20 08:07:40;;;;;;;5.07;3.40;;;;;;;;;;4973445;28;20744;-74
2023/12/20 08:10:06;;;;;;;5.93;4.00;;;;;;;;;;4973052;28;20441;-74
2023/12/20 08:12:33;;;;;;;4.13;3.47;;;;;;;;;;4973385;28;20420;-74
2023/12/20 08:14:59;;;;;;;5.07;3.37;;;;;;;;;;4973412;28;20451;-74
2023/12/20 08:17:25;;;;;;;11.47;4.27;;;;;;;;;;4973771;28;20420;-75
2023/12/20 08:19:51;;;;;;;4.37;3.73;;;;;;;;;;4973732;28;20752;-77
2023/12/20 08:22:17;;;;;;;9.60;4.40;;;;;;;;;;4988805;28;20463;-78
2023/12/20 08:24:43;;;;;;;4.80;3.60;;;;;;;;;;4976650;28;20436;-80
2023/12/20 08:27:09;;;;;;;10.97;4.03;;;;;;;;;;4974028;28;20507;-78
2023/12/20 08:29:36;;;;;;;5.90;4.17;;;;;;;;;;4962172;28;20586;-77
2023/12/20 08:32:02;;;;;;;6.60;4.00;;;;;;;;;;4957645;28;20425;-80
2023/12/20 08:34:28;;;;;;;6.40;3.80;;;;;;;;;;4972383;28;20439;-79
2023/12/20 08:36:54;;;;;;;10.23;4.80;;;;;;;;;;4970830;28;20424;-78
2023/12/20 08:39:20;;;;;;;12.90;4.67;;;;;;;;;;4972695;28;20428;-78
2023/12/20 08:41:46;;;;;;;7.40;4.33;;;;;;;;;;4968838;28;20998;-79
2023/12/20 08:44:12;;;;;;;6.20;4.23;;;;;;;;;;4973175;28;20451;-80
2023/12/20 08:46:38;;;;;;;7.30;4.27;;;;;;;;;;4988655;28;20424;-79
2023/12/20 08:49:04;;;;;;;9.07;4.53;;;;;;;;;;4988409;28;20415;-79
2023/12/20 08:51:30;;;;;;;8.67;4.03;;;;;;;;;;4995910;28;20419;-79
2023/12/20 08:53:56;;;;;;;8.10;4.30;;;;;;;;;;4996502;28;20427;-79
2023/12/20 08:56:22;;;;;;;9.33;5.30;;;;;;;;;;4985193;28;20423;-78
2023/12/20 08:58:48;;;;;;;5.17;3.60;;;;;;;;;;4974900;28;20438;-77
2023/12/20 09:01:14;;;;;;;4.33;3.07;;;;;;;;;;4972187;28;20420;-77
2023/12/20 09:03:40;;;;;;;8.27;3.10;;;;;;;;;;4973629;28;20424;-79
2023/12/20 09:06:06;;;;;;;12.33;3.73;;;;;;;;;;4969623;28;20412;-79
2023/12/20 09:08:33;;;;;;;7.10;2.93;;;;;;;;;;4973517;28;20416;-78
2023/12/20 09:10:59;;;;;;;6.97;2.60;;;;;;;;;;4972727;28;20427;-79
2023/12/20 09:13:28;;;;;;;3.23;2.43;;;;;;;;;;4976340;28;20412;-80
2023/12/20 09:15:57;;;;;;;6.63;3.10;;;;;;;;;;4974788;28;20946;-78
2023/12/20 09:18:23;;;;;;;5.53;3.00;;;;;;;;;;4974096;28;20981;-79
2023/12/20 09:20:49;;;;;;;3.90;2.23;;;;;;;;;;4974689;28;20502;-79
2023/12/20 09:23:15;;;;;;;3.87;2.60;;;;;;;;;;4976479;28;20458;-79
2023/12/20 09:25:41;;;;;;;4.07;3.03;;;;;;;;;;4976750;28;20939;-79
2023/12/20 09:28:07;;;;;;;6.10;3.10;;;;;;;;;;4978225;28;21019;-79
2023/12/20 09:30:35;;;;;;;3.13;2.23;;;;;;;;;;4978562;28;20521;-79
2023/12/20 09:33:01;;;;;;;7.40;2.33;;;;;;;;;;4976602;28;20408;-80
2023/12/20 09:35:27;;;;;;;3.30;2.77;;;;;;;;;;4963459;28;20451;-79
2023/12/20 09:37:53;;;;;;;4.30;2.53;;;;;;;;;;4957008;28;20420;-79
2023/12/20 09:40:19;;;;;;;6.87;2.60;;;;;;;;;;4969203;28;20432;-78
2023/12/20 09:42:52;;;;;;;4.90;2.60;;;;;;;;;;4961011;28;20966;-79
2023/12/20 09:45:21;;;;;;;3.50;2.40;;;;;;;;;;4976675;28;20450;-79
2023/12/20 09:47:46;;;;;;;3.43;2.33;;;;;;;;;;4976703;28;20476;-77
2023/12/20 09:50:13;;;;;;;3.27;2.50;;;;;;;;;;4974277;28;20409;-79
2023/12/20 09:52:40;;;;;;;8.70;2.60;;;;;;;;;;4966813;28;20423;-79
2023/12/20 09:55:07;;;;;;;3.43;2.30;;;;;;;;;;4964448;28;20444;-78
2023/12/20 09:57:33;;;;;;;6.83;3.27;;;;;;;;;;4958634;28;20432;-78
2023/12/20 09:59:59;;;;;;;2.70;2.07;;;;;;;;;;4969929;28;20420;-78
2023/12/20 10:02:29;;;;;;;3.00;2.10;;;;;;;;;;4976205;28;20518;-78
2023/12/20 10:04:55;;;;;;;7.10;2.10;;;;;;;;;;4976819;28;20811;-78
2023/12/20 10:07:22;;;;;;;11.40;2.67;;;;;;;;;;4974885;28;20792;-78
2023/12/20 10:09:48;;;;;;;6.67;2.20;;;;;;;;;;4976284;28;20867;-78
2023/12/20 10:12:14;;;;;;;11.83;2.70;;;;;;;;;;4985668;28;20423;-77
2023/12/20 10:14:40;;;;;;;5.40;2.37;;;;;;;;;;4984257;28;20559;-78
2023/12/20 10:17:07;;;;;;;6.77;2.53;;;;;;;;;;4984425;28;20416;-78
2023/12/20 10:19:33;;;;;;;5.70;2.27;;;;;;;;;;4979340;28;20419;-80
2023/12/20 10:22:05;;;;;;;3.90;1.97;;;;;;;;;;4976804;28;20529;-80
2023/12/20 10:24:31;;;;;;;7.60;2.37;;;;;;;;;;4975356;28;20501;-79
2023/12/20 10:27:04;;;;;;;4.40;2.20;;;;;;;;;;4975940;28;20447;-79
2023/12/20 10:29:37;;;;;;;5.10;2.10;;;;;;;;;;4974321;28;20408;-79
2023/12/20 10:32:23;;;;;;;3.47;2.17;;;;;;;;;;4975108;28;20420;-77
2023/12/20 10:34:49;;;;;;;3.67;1.90;;;;;;;;;;4974878;28;20527;-77
2023/12/20 10:37:15;;;;;;;5.87;2.37;;;;;;;;;;4956645;28;20417;-77
2023/12/20 10:39:43;;;;;;;12.63;2.67;;;;;;;;;;4962900;28;20428;-78
2023/12/20 10:42:10;;;;;;;5.77;2.27;;;;;;;;;;4966594;28;20460;-78
2023/12/20 10:44:36;;;;;;;5.70;2.37;;;;;;;;;;4955947;28;20807;-79
2023/12/20 10:47:02;;;;;;;5.77;2.83;;;;;;;;;;4970239;28;20412;-75
2023/12/20 10:49:29;;;;;;;3.17;2.17;;;;;;;;;;4974841;28;20420;-78
2023/12/20 10:51:57;;;;;;;8.90;2.80;;;;;;;;;;4975354;28;20463;-79
2023/12/20 10:54:23;;;;;;;3.67;2.40;;;;;;;;;;4975016;28;20494;-79
2023/12/20 10:56:50;;;;;;;7.90;2.57;;;;;;;;;;4971882;28;20423;-76
2023/12/20 10:59:18;;;;;;;7.37;2.30;;;;;;;;;;4966691;28;20424;-76
2023/12/20 11:01:44;;;;;;;6.53;2.30;;;;;;;;;;4972979;28;20490;-76
2023/12/20 11:04:16;;;;;;;5.83;2.50;;;;;;;;;;4973171;28;20440;-76
2023/12/20 11:06:50;;;;;;;6.73;2.47;;;;;;;;;;4974775;28;20404;-77
2023/12/20 11:09:27;;;;;;;4.43;2.33;;;;;;;;;;4974423;28;20533;-79
2023/12/20 11:11:59;;;;;;;5.67;2.70;;;;;;;;;;4974842;28;20408;-79
2023/12/20 11:14:32;;;;;;;6.10;1.90;;;;;;;;;;4975855;28;20448;-76
2023/12/20 11:17:07;;;;;;;5.23;2.13;;;;;;;;;;4974266;28;20435;-71
2023/12/20 11:19:36;;;;;;;10.30;2.30;;;;;;;;;;4977002;28;20408;-79
2023/12/20 11:22:04;;;;;;;3.10;2.90;;;;;;;;;;4961676;28;20542;-73
2023/12/20 11:24:33;;;;;;;3.70;2.20;;;;;;;;;;4973751;28;20435;-73
2023/12/20 11:27:00;;;;;;;15.93;4.30;;;;;;;;;;4973913;28;20764;-72
2023/12/20 11:29:33;;;;;;;2.97;1.90;;;;;;;;;;4965563;28;20442;-79
2023/12/20 11:32:19;;;;;;;7.20;2.37;;;;;;;;;;4968443;28;20420;-78
2023/12/20 11:34:45;;;;;;;7.03;2.30;;;;;;;;;;4965634;28;20451;-80
2023/12/20 11:37:11;;;;;;;9.47;2.47;;;;;;;;;;4974018;28;20420;-77
2023/12/20 11:39:37;;;;;;;12.10;2.10;;;;;;;;;;4973143;28;20411;-79
2023/12/20 11:42:06;;;;;;;8.57;1.70;;;;;;;;;;4976117;28;20463;-79
2023/12/20 11:44:32;;;;;;;5.33;2.10;;;;;;;;;;4955362;28;20995;-78
2023/12/20 11:46:58;;;;;;;9.10;2.13;;;;;;;;;;4973871;28;20915;-73
2023/12/20 11:49:25;;;;;;;3.93;2.53;;;;;;;;;;4973662;28;20423;-72
2023/12/20 11:51:51;;;;;;;8.97;2.83;;;;;;;;;;4967048;28;20420;-73
2023/12/20 11:54:17;;;;;;;4.10;2.40;;;;;;;;;;4972040;28;21032;-73
2023/12/20 11:56:43;;;;;;;4.43;2.23;;;;;;;;;;4973133;28;20931;-74
2023/12/20 11:59:11;;;;;;;4.97;2.20;;;;;;;;;;4972208;28;20416;-72
2023/12/20 12:01:37;;;;;;;8.33;2.50;;;;;;;;;;4971610;28;20462;-73
2023/12/20 12:04:07;;;;;;;10.43;2.63;;;;;;;;;;4973759;28;20555;-72
2023/12/20 12:06:33;;;;;;;7.10;3.27;;;;;;;;;;4973239;28;20446;-78
2023/12/20 12:08:59;;;;;;;10.60;2.70;;;;;;;;;;4966605;28;20417;-78
2023/12/20 12:11:25;;;;;;;5.30;2.60;;;;;;;;;;4968410;28;20498;-79
2023/12/20 12:13:51;;;;;;;6.10;2.67;;;;;;;;;;4973065;28;20447;-79
2023/12/20 12:16:18;;;;;;;4.03;2.30;;;;;;;;;;4980193;28;20839;-81
2023/12/20 12:18:45;;;;;;;11.73;3.03;;;;;;;;;;4989156;28;20420;-79
2023/12/20 12:21:11;;;;;;;10.00;2.27;;;;;;;;;;4976737;28;20954;-79
2023/12/20 12:23:37;;;;;;;5.37;2.80;;;;;;;;;;4988489;23;20507;-76
2023/12/20 12:26:06;;;;;;;5.33;2.13;;;;;;;;;;4973782;28;20412;-77
2023/12/20 12:28:34;;;;;;;8.77;2.23;;;;;;;;;;4977480;28;20412;-77
2023/12/20 12:31:01;;;;;;;6.90;2.43;;;;;;;;;;4989666;28;20426;-77
2023/12/20 12:33:27;;;;;;;5.07;2.37;;;;;;;;;;4983459;28;20436;-76
2023/12/20 12:35:53;;;;;;;15.60;2.57;;;;;;;;;;4973328;28;20899;-78
2023/12/20 12:38:22;;;;;;;7.30;2.77;;;;;;;;;;4977400;28;20428;-79
2023/12/20 12:40:49;;;;;;;5.17;2.50;;;;;;;;;;4977342;28;20413;-79
2023/12/20 12:43:15;;;;;;;11.03;3.13;;;;;;;;;;4975098;28;20911;-79
2023/12/20 12:45:41;;;;;;;5.03;2.60;;;;;;;;;;4978772;28;20423;-79
2023/12/20 12:48:07;;;;;;;6.23;1.80;;;;;;;;;;4985419;28;20434;-78
2023/12/20 12:50:34;;;;;;;8.00;2.83;;;;;;;;;;4992494;28;20887;-79
2023/12/20 12:53:00;;;;;;;9.53;2.93;;;;;;;;;;4976111;28;20431;-80
2023/12/20 12:55:26;;;;;;;8.10;3.07;;;;;;;;;;4979204;28;20407;-79
2023/12/20 12:57:52;;;;;;;6.73;2.60;;;;;;;;;;4977905;28;20946;-79
2023/12/20 13:00:19;;;;;;;8.63;2.83;;;;;;;;;;4978834;28;20503;-79
2023/12/20 13:02:45;;;;;;;7.03;2.97;;;;;;;;;;4960850;28;20503;-78
2023/12/20 13:05:11;;;;;;;4.57;2.30;;;;;;;;;;4959760;28;20420;-79
2023/12/20 13:07:39;;;;;;;7.87;3.00;;;;;;;;;;4974919;28;20927;-78
2023/12/20 13:10:05;;;;;;;9.57;2.30;;;;;;;;;;4978255;28;20903;-79
2023/12/20 13:12:31;;;;;;;6.80;2.10;;;;;;;;;;4975690;28;20448;-77
2023/12/20 13:14:58;;;;;;;6.20;2.70;;;;;;;;;;4976403;28;20419;-76
2023/12/20 13:17:24;;;;;;;9.03;2.80;;;;;;;;;;4976854;28;20486;-78
2023/12/20 13:19:50;;;;;;;7.70;2.70;;;;;;;;;;4978985;28;20419;-79
2023/12/20 13:22:16;;;;;;;5.53;2.30;;;;;;;;;;4981662;28;20482;-79
2023/12/20 13:24:44;;;;;;;9.63;2.40;;;;;;;;;;4976327;28;20827;-77
2023/12/20 13:27:10;;;;;;;6.70;2.10;;;;;;;;;;4980366;28;20422;-77
2023/12/20 13:29:36;;;;;;;7.07;3.10;;;;;;;;;;4960687;28;20416;-78
2023/12/20 13:32:03;;;;;;;14.17;2.30;;;;;;;;;;4970144;28;20446;-78
2023/12/20 13:34:29;;;;;;;4.47;2.50;;;;;;;;;;4960781;28;20839;-78
2023/12/20 13:36:56;;;;;;;7.90;2.33;;;;;;;;;;4969452;28;20416;-78
2023/12/20 13:39:22;;;;;;;9.07;2.43;;;;;;;;;;4976625;28;20420;-79
2023/12/20 13:41:48;;;;;;;7.83;2.00;;;;;;;;;;4977027;28;20559;-81
2023/12/20 13:44:14;;;;;;;5.73;2.17;;;;;;;;;;4977979;28;20448;-79
2023/12/20 13:46:41;;;;;;;4.87;2.20;;;;;;;;;;4977152;28;20895;-79
2023/12/20 13:49:07;;;;;;;8.13;2.63;;;;;;;;;;4977487;28;20913;-80
2023/12/20 13:51:33;;;;;;;3.10;1.83;;;;;;;;;;4972857;28;20428;-77
2023/12/20 13:53:59;;;;;;;8.20;2.60;;;;;;;;;;4975180;28;20460;-76
2023/12/20 13:56:26;;;;;;;6.07;1.90;;;;;;;;;;4971700;28;20431;-75
2023/12/20 13:58:52;;;;;;;5.60;2.60;;;;;;;;;;4958605;28;20428;-76
2023/12/20 14:01:18;;;;;;;4.70;2.27;;;;;;;;;;4960910;28;20423;-77
2023/12/20 14:03:44;;;;;;;4.53;1.97;;;;;;;;;;4975333;28;20428;-77
2023/12/20 14:06:10;;;;;;;7.63;2.23;;;;;;;;;;4974878;28;20470;-77
2023/12/20 14:08:36;;;;;;;8.00;2.10;;;;;;;;;;4975168;28;20920;-77
2023/12/20 14:11:02;;;;;;;3.73;1.97;;;;;;;;;;4970015;28;20420;-77
2023/12/20 14:13:28;;;;;;;7.00;2.03;;;;;;;;;;4960745;28;20962;-76
2023/12/20 14:15:54;;;;;;;6.50;2.20;;;;;;;;;;4958089;28;20458;-79
2023/12/20 14:18:20;;;;;;;8.50;2.40;;;;;;;;;;4976009;28;20473;-76
2023/12/20 14:20:47;;;;;;;9.83;2.77;;;;;;;;;;4975141;28;20396;-77
2023/12/20 14:23:14;;;;;;;10.63;2.07;;;;;;;;;;4973484;28;20566;-77
2023/12/20 14:25:41;;;;;;;7.37;2.50;;;;;;;;;;4974728;28;20642;-77
2023/12/20 14:28:07;;;;;;;4.47;2.73;;;;;;;;;;4989564;28;20422;-77
2023/12/20 14:30:34;;;;;;;2.73;1.87;;;;;;;;;;4974615;28;20416;-77
2023/12/20 14:33:00;;;;;;;5.90;2.67;;;;;;;;;;4974772;28;20934;-77
2023/12/20 14:35:26;;;;;;;6.80;2.50;;;;;;;;;;4974821;28;20416;-77
2023/12/20 14:37:52;;;;;;;9.07;2.30;;;;;;;;;;4974007;28;20415;-77
2023/12/20 14:40:19;;;;;;;5.67;2.20;;;;;;;;;;4975730;28;20841;-77
2023/12/20 14:42:45;;;;;;;5.07;2.10;;;;;;;;;;4977932;28;20475;-77
2023/12/20 14:45:11;;;;;;;9.20;2.40;;;;;;;;;;4979058;28;20416;-79
2023/12/20 14:47:37;;;;;;;6.70;2.63;;;;;;;;;;4984337;28;20751;-80
2023/12/20 14:50:04;;;;;;;10.77;2.13;;;;;;;;;;4989288;28;20412;-79
2023/12/20 14:52:30;;;;;;;6.70;2.10;;;;;;;;;;4982515;28;20451;-81
2023/12/20 14:54:56;;;;;;;5.10;2.07;;;;;;;;;;4980225;28;20432;-79
2023/12/20 14:57:22;;;;;;;4.57;2.43;;;;;;;;;;4981422;28;20427;-79
2023/12/20 14:59:47;;;;;;;10.23;2.63;;;;;;;;;;4977289;28;20439;-80
2023/12/20 15:02:15;;;;;;;3.87;2.10;;;;;;;;;;4978281;28;20480;-80
2023/12/20 15:04:41;;;;;;;21.97;3.07;;;;;;;;;;4989386;28;20434;-79
2023/12/20 15:07:07;;;;;;;6.60;3.90;;;;;;;;;;4978401;28;20416;-79
2023/12/20 15:09:33;;;;;;;6.93;3.30;;;;;;;;;;4961937;28;20483;-79
2023/12/20 15:11:59;;;;;;;8.00;2.67;;;;;;;;;;4957995;28;20442;-79
2023/12/20 15:14:25;;;;;;;6.77;2.70;;;;;;;;;;4965837;28;20498;-79
2023/12/20 15:16:50;;;;;;;6.03;2.43;;;;;;;;;;4980033;28;20425;-78
2023/12/20 15:19:16;;;;;;;4.60;2.00;;;;;;;;;;4978806;28;20451;-78
2023/12/20 15:21:42;;;;;;;3.20;1.77;;;;;;;;;;4966645;28;20471;-78
2023/12/20 15:24:16;;;;;;;4.67;2.40;;;;;;;;;;4961295;28;20432;-76
2023/12/20 15:26:43;;;;;;;4.10;2.90;;;;;;;;;;4973268;28;20440;-77
2023/12/20 15:29:09;;;;;;;5.77;2.50;;;;;;;;;;4972247;28;20479;-78
2023/12/20 15:31:36;;;;;;;5.37;2.17;;;;;;;;;;4972419;28;20415;-78
2023/12/20 15:34:02;;;;;;;6.20;2.47;;;;;;;;;;4972533;28;20447;-78
2023/12/20 15:36:28;;;;;;;5.97;2.23;;;;;;;;;;4974496;28;20601;-79
2023/12/20 15:38:54;;;;;;;7.20;2.63;;;;;;;;;;4974158;28;20487;-78
2023/12/20 15:41:21;;;;;;;4.13;1.97;;;;;;;;;;4974455;28;20423;-79
2023/12/20 15:43:47;;;;;;;6.90;2.07;;;;;;;;;;4976280;28;20435;-79
2023/12/20 15:46:13;;;;;;;3.73;2.73;;;;;;;;;;4977014;28;20419;-79
2023/12/20 15:48:39;;;;;;;4.60;2.00;;;;;;;;;;4977187;28;20416;-79
2023/12/20 15:51:11;;;;;;;4.37;2.47;;;;;;;;;;4968188;28;20465;-79
2023/12/20 15:53:37;;;;;;;4.40;2.40;;;;;;;;;;4963948;28;20433;-79
2023/12/20 15:56:04;;;;;;;8.43;2.37;;;;;;;;;;4963729;28;20413;-79
2023/12/20 15:58:30;;;;;;;7.83;2.80;;;;;;;;;;4976661;28;20436;-79
2023/12/20 16:00:56;;;;;;;4.50;2.37;;;;;;;;;;4973987;28;20451;-77
2023/12/20 16:03:22;;;;;;;5.77;2.50;;;;;;;;;;4974621;28;20467;-79
2023/12/20 16:05:48;;;;;;;8.33;2.53;;;;;;;;;;4974310;28;20424;-78
2023/12/20 16:08:15;;;;;;;4.27;2.13;;;;;;;;;;4973582;28;20420;-78
2023/12/20 16:10:41;;;;;;;7.07;2.60;;;;;;;;;;4958198;28;20420;-80
2023/12/20 16:13:08;;;;;;;7.37;2.10;;;;;;;;;;4956157;28;20445;-80
2023/12/20 16:15:34;;;;;;;4.73;2.80;;;;;;;;;;4969213;28;20420;-78
2023/12/20 16:18:00;;;;;;;9.43;2.90;;;;;;;;;;4975259;28;20921;-79
2023/12/20 16:20:26;;;;;;;9.03;2.67;;;;;;;;;;4971868;28;20915;-77
2023/12/20 16:22:52;;;;;;;6.57;3.20;;;;;;;;;;4971106;28;20997;-77
2023/12/20 16:25:18;;;;;;;7.10;2.90;;;;;;;;;;4966364;28;20416;-78
2023/12/20 16:27:44;;;;;;;10.43;3.80;;;;;;;;;;4973312;28;20891;-77
2023/12/20 16:30:10;;;;;;;10.70;3.53;;;;;;;;;;4972683;28;20858;-78
2023/12/20 16:32:36;;;;;;;7.00;3.70;;;;;;;;;;4977503;28;20443;-79
2023/12/20 16:35:04;;;;;;;6.83;2.90;;;;;;;;;;4970034;28;20478;-79
2023/12/20 16:37:30;;;;;;;7.03;3.50;;;;;;;;;;4978158;28;20491;-75
2023/12/20 16:39:56;;;;;;;7.97;2.93;;;;;;;;;;4972921;28;20928;-75
2023/12/20 16:42:22;;;;;;;15.70;5.60;;;;;;;;;;4957732;28;20843;-77
2023/12/20 16:44:48;;;;;;;14.90;6.00;;;;;;;;;;4970730;28;20416;-78
2023/12/20 16:47:14;;;;;;;16.77;5.30;;;;;;;;;;4978639;28;20411;-77
2023/12/20 16:49:40;;;;;;;9.33;3.63;;;;;;;;;;4976599;28;20411;-73
2023/12/20 16:52:06;;;;;;;12.13;4.90;;;;;;;;;;4976470;28;20503;-72
2023/12/20 16:54:32;;;;;;;15.60;5.90;;;;;;;;;;4976606;28;21154;-73
2023/12/20 16:56:58;;;;;;;8.70;4.60;;;;;;;;;;4976548;28;20426;-74
2023/12/20 16:59:24;;;;;;;11.67;4.57;;;;;;;;;;4975568;28;20427;-73
2023/12/20 17:01:51;;;;;;;17.90;4.80;;;;;;;;;;4976179;28;20471;-73
2023/12/20 17:04:17;;;;;;;7.80;3.40;;;;;;;;;;4958513;28;20416;-72
2023/12/20 17:06:43;;;;;;;8.00;3.50;;;;;;;;;;4973095;28;20415;-74
2023/12/20 17:09:09;;;;;;;10.43;3.47;;;;;;;;;;4970831;28;20420;-74
2023/12/20 17:11:35;;;;;;;6.50;2.80;;;;;;;;;;4974986;28;20423;-73
2023/12/20 17:14:02;;;;;;;9.93;4.57;;;;;;;;;;4974974;28;20516;-73
2023/12/20 17:16:28;;;;;;;7.40;3.60;;;;;;;;;;4975954;28;20914;-73
2023/12/20 17:18:54;;;;;;;12.03;5.60;;;;;;;;;;4976429;28;20412;-73
2023/12/20 17:21:21;;;;;;;10.80;3.67;;;;;;;;;;4965310;28;20420;-74
2023/12/20 17:23:47;;;;;;;12.83;4.50;;;;;;;;;;4971057;28;20963;-74
2023/12/20 17:26:13;;;;;;;6.13;3.10;;;;;;;;;;4968161;28;20415;-73
2023/12/20 17:28:40;;;;;;;6.93;3.10;;;;;;;;;;4970860;28;20444;-73
2023/12/20 17:31:06;;;;;;;6.13;3.00;;;;;;;;;;4972471;28;20971;-72
2023/12/20 17:33:32;;;;;;;7.60;2.93;;;;;;;;;;4970227;28;20919;-72
2023/12/20 17:35:59;;;;;;;4.13;2.60;;;;;;;;;;4968390;28;20438;-73
2023/12/20 17:38:25;;;;;;;9.97;3.67;;;;;;;;;;4973926;28;20433;-73
2023/12/20 17:40:51;;;;;;;4.77;2.50;;;;;;;;;;4977189;28;20814;-73
2023/12/20 17:43:17;;;;;;;5.20;2.50;;;;;;;;;;4966965;28;20559;-73
2023/12/20 17:45:43;;;;;;;4.20;2.70;;;;;;;;;;4972505;28;20419;-73
2023/12/20 17:48:09;;;;;;;5.67;2.40;;;;;;;;;;4974900;28;20507;-73
2023/12/20 17:50:35;;;;;;;6.43;2.70;;;;;;;;;;4960678;28;20424;-73
2023/12/20 17:53:01;;;;;;;7.13;2.90;;;;;;;;;;4973747;28;20451;-73
2023/12/20 17:55:27;;;;;;;5.70;3.13;;;;;;;;;;4969707;28;20423;-72
2023/12/20 17:57:53;;;;;;;6.30;2.60;;;;;;;;;;4969767;28;20918;-76
2023/12/20 18:00:20;;;;;;;6.07;3.17;;;;;;;;;;4975139;28;20511;-74
2023/12/20 18:02:46;;;;;;;12.10;5.33;;;;;;;;;;4960576;28;20475;-76
2023/12/20 18:05:12;;;;;;;8.50;4.00;;;;;;;;;;4975322;28;21018;-77
2023/12/20 18:07:38;;;;;;;9.03;3.90;;;;;;;;;;4968225;28;20420;-77
2023/12/20 18:10:05;;;;;;;11.33;4.10;;;;;;;;;;4974218;28;20412;-77
2023/12/20 18:12:31;;;;;;;13.63;2.90;;;;;;;;;;4961151;28;20436;-75
2023/12/20 18:14:58;;;;;;;9.70;4.30;;;;;;;;;;4957562;28;20424;-75
2023/12/20 18:17:24;;;;;;;8.63;3.80;;;;;;;;;;4966027;28;20430;-74
2023/12/20 18:19:50;;;;;;;6.67;3.23;;;;;;;;;;4968707;28;20471;-77
2023/12/20 18:22:16;;;;;;;10.77;4.87;;;;;;;;;;5002718;23;20517;-77
2023/12/20 18:24:42;;;;;;;10.30;3.57;;;;;;;;;;5005576;28;20441;-77
2023/12/20 18:27:08;;;;;;;10.27;4.80;;;;;;;;;;5010175;28;20423;-78
2023/12/20 18:29:34;;;;;;;9.53;4.20;;;;;;;;;;5009930;28;20449;-79
2023/12/20 18:32:00;;;;;;;12.00;4.50;;;;;;;;;;5016595;28;20414;-78
2023/12/20 18:34:26;;;;;;;4.23;3.00;;;;;;;;;;4996739;28;20426;-78
2023/12/20 18:36:52;;;;;;;9.30;2.97;;;;;;;;;;5009315;28;20509;-77
2023/12/20 18:39:18;;;;;;;3.40;2.50;;;;;;;;;;5000560;28;20426;-77
2023/12/20 18:41:48;;;;;;;5.00;2.67;;;;;;;;;;4988025;28;20462;-76
2023/12/20 18:44:14;;;;;;;1.77;1.67;;;;;;;;;;5003747;28;20419;-76
2023/12/20 18:46:40;;;;;;;5.50;2.10;;;;;;;;;;4987097;28;20425;-77
2023/12/20 18:49:09;;;;;;;2.93;2.03;;;;;;;;;;5000468;28;20584;-75
2023/12/20 18:51:35;;;;;;;6.90;2.90;;;;;;;;;;5005862;28;20924;-77
2023/12/20 18:54:01;;;;;;;10.63;4.50;;;;;;;;;;5009008;28;20844;-74
2023/12/20 18:56:27;;;;;;;3.60;2.20;;;;;;;;;;4985103;28;20542;-76
2023/12/20 18:58:53;;;;;;;8.10;2.93;;;;;;;;;;4998946;28;20783;-76
2023/12/20 19:01:19;;;;;;;8.10;3.33;;;;;;;;;;4988623;28;20505;-77
2023/12/20 19:03:45;;;;;;;6.60;4.03;;;;;;;;;;4994061;28;20899;-77
2023/12/20 19:06:11;;;;;;;4.70;2.50;;;;;;;;;;4992228;28;20419;-76
2023/12/20 19:08:39;;;;;;;4.43;2.40;;;;;;;;;;4993322;28;20488;-77
2023/12/20 19:11:05;;;;;;;5.43;3.70;;;;;;;;;;4992223;28;20422;-77
2023/12/20 19:13:31;;;;;;;8.90;2.70;;;;;;;;;;4995104;28;20445;-77
2023/12/20 19:16:01;;;;;;;4.07;3.10;;;;;;;;;;5003926;28;20430;-77
2023/12/20 19:18:27;;;;;;;6.50;2.17;;;;;;;;;;4993464;28;20419;-76
2023/12/20 19:20:54;;;;;;;7.60;3.00;;;;;;;;;;4991393;28;20984;-76
2023/12/20 19:23:20;;;;;;;7.00;2.80;;;;;;;;;;4995606;28;20553;-77
2023/12/20 19:25:46;;;;;;;7.67;2.80;;;;;;;;;;4984722;28;20506;-77
2023/12/20 19:28:12;;;;;;;8.37;3.30;;;;;;;;;;4991877;28;20419;-77
2023/12/20 19:30:38;;;;;;;6.97;2.90;;;;;;;;;;4993144;28;20481;-77
2023/12/20 19:33:04;;;;;;;3.93;2.50;;;;;;;;;;4985596;28;20935;-76
2023/12/20 19:35:30;;;;;;;8.13;2.30;;;;;;;;;;4990445;28;20525;-77
2023/12/20 19:37:56;;;;;;;6.23;2.33;;;;;;;;;;5002291;28;20925;-77
2023/12/20 19:40:23;;;;;;;3.40;2.43;;;;;;;;;;4993689;28;20415;-78
2023/12/20 19:42:49;;;;;;;2.93;2.10;;;;;;;;;;4989022;28;20511;-76
2023/12/20 19:45:16;;;;;;;8.67;3.23;;;;;;;;;;4994713;28;20946;-77
2023/12/20 19:47:52;;;;;;;9.40;2.90;;;;;;;;;;4997756;28;20422;-78
2023/12/20 19:50:18;;;;;;;9.67;3.97;;;;;;;;;;4985205;28;20414;-78
2023/12/20 19:52:44;;;;;;;10.83;3.30;;;;;;;;;;4992118;28;20946;-78
2023/12/20 19:55:10;;;;;;;8.23;2.80;;;;;;;;;;4992317;28;20458;-78
2023/12/20 19:57:36;;;;;;;4.43;2.57;;;;;;;;;;4989760;28;20977;-78
2023/12/20 20:00:04;;;;;;;14.80;3.27;;;;;;;;;;4992699;28;20848;-78
2023/12/20 20:02:30;;;;;;;3.20;2.57;;;;;;;;;;4994003;28;20951;-79
2023/12/20 20:04:56;;;;;;;4.80;2.47;;;;;;;;;;4990352;28;20422;-79
2023/12/20 20:07:23;;;;;;;7.80;3.70;;;;;;;;;;5000037;28;21018;-79
2023/12/20 20:09:49;;;;;;;10.07;2.70;;;;;;;;;;4992186;28;20427;-79
2023/12/20 20:12:15;;;;;;;8.00;3.70;;;;;;;;;;4993651;28;20794;-78
2023/12/20 20:14:41;;;;;;;7.00;3.30;;;;;;;;;;4993322;28;20975;-79
2023/12/20 20:17:07;;;;;;;4.10;2.80;;;;;;;;;;4994376;28;20522;-78
2023/12/20 20:19:33;;;;;;;11.63;2.97;;;;;;;;;;4994248;28;20418;-78
2023/12/20 20:21:59;;;;;;;8.63;2.67;;;;;;;;;;4993143;28;20580;-77
2023/12/20 20:24:25;;;;;;;11.17;2.90;;;;;;;;;;4993128;28;20937;-80
2023/12/20 20:26:52;;;;;;;8.40;3.10;;;;;;;;;;4996243;28;20832;-79
2023/12/20 20:29:18;;;;;;;10.40;3.23;;;;;;;;;;4989739;28;20593;-79
2023/12/20 20:31:44;;;;;;;6.20;2.87;;;;;;;;;;4987735;28;20419;-78
2023/12/20 20:34:10;;;;;;;4.80;2.53;;;;;;;;;;4993001;28;20756;-81
2023/12/20 20:36:36;;;;;;;2.97;2.80;;;;;;;;;;5000817;28;20932;-78